• Join FlightAware (Why Join?)
  • Login
  • US Flag 
12:26AM EDT


 

Airport Tracker/Info


-or-


 

Live Flight TrackerFlight Track Log ✈ FLG3422 ✈ 30-Apr-2012 ✈ KCLE - KDTW

Flight Track Log - Related Links

Times and Time Zones

All times are in EDT time to prevent confusion due to time zone crossing. See the FLG3422 flight status page for this flight to view local times or setup timezone preferences in your user account.

Time Position Orientation Groundspeed Altitude Reporting Facility
EDT Latitude Longitude Course Direction KTS MPH feet Rate Location/Type
11:35AM 41.3917 -81.8867 249° West 166 191 2,100  Level Cleveland Center
11:36AM 41.3700 -81.9611 284° West 194 223 4,700 2,040 Climbing Cleveland Center
11:37AM 41.3856 -82.0472 302° West 235 270 6,900 2,400 Climbing Cleveland Center
11:38AM 41.4261 -82.1339 285° West 257 296 9,500 1,980 Climbing Cleveland Center
11:39AM 41.4456 -82.2342 281° West 274 315 10,900 660 Climbing Cleveland Center
11:40AM 41.4625 -82.3536 288° West 311 358 10,900  Level Cleveland Center
11:41AM 41.4881 -82.4597 342° North 310 357 10,900  Level Cleveland Center
11:42AM 41.5769 -82.4983 336° Northwest 298 343 10,900  Level Cleveland Center
11:43AM 41.6492 -82.5422 296° West 346 398 10,900 480 Level Cleveland Center
11:44AM 41.6911 -82.6575 292° West 320 368 11,900 420 Climbing Cleveland Center
11:45AM 41.7225 -82.7642 314° West 310 357 11,900  Level Cleveland Center
11:46AM 41.7731 -82.8356 318° Northwest 312 359 11,900  Level Cleveland Center
11:47AM 41.8383 -82.9158 319° Northwest 317 365 11,900  Level Cleveland Center
11:48AM 41.9114 -83.0022 317° Northwest 294 338 12,000  Climbing Cleveland Center
11:49AM 41.9683 -83.0742 320° Northwest 284 327 12,000 -480 Level Cleveland Center
11:50AM 42.0253 -83.1381 316° Northwest 241 277 11,000 -480 Descending Cleveland Center
11:51AM 42.0739 -83.2017 North 249 287 11,000 -720 Level Cleveland Center
11:54AM 42.2875 -83.1597 27° Northeast 273 314 8,200 -1,020 Descending Cleveland Center
11:55AM 42.3531 -83.1147 22° Northeast 262 302 6,900 -1,140 Descending Cleveland Center
11:56AM 42.4164 -83.0806 301° West 230 265 6,000 -600 Descending Cleveland Center
11:57AM 42.4481 -83.1522 285° West 174 200 5,700 -720 Descending Cleveland Center
11:58AM 42.4575 -83.2006 203° Southwest 148 170 4,600 -900 Descending Cleveland Center
11:59AM 42.4172 -83.2242 209° Southwest 162 186 4,000 -360 Descending Cleveland Center
12:01PM 42.3708 -83.2589 209° Southwest 168 193 3,900 -120 Descending Cleveland Center